sensor_id;sensor_type;location;lat;lon;timestamp;P1;durP1;ratioP1;P2;durP2;ratioP2
11211;SDS011;5663;50.864;12.096;2022-10-18T00:01:05;7.87;;;6.17;;
11211;SDS011;5663;50.864;12.096;2022-10-18T00:03:38;9.50;;;5.40;;
11211;SDS011;5663;50.864;12.096;2022-10-18T00:06:06;9.90;;;6.00;;
11211;SDS011;5663;50.864;12.096;2022-10-18T00:08:35;10.67;;;5.97;;
11211;SDS011;5663;50.864;12.096;2022-10-18T00:11:04;9.97;;;6.10;;
11211;SDS011;5663;50.864;12.096;2022-10-18T00:13:36;7.90;;;5.27;;
11211;SDS011;5663;50.864;12.096;2022-10-18T00:16:15;10.47;;;6.13;;
11211;SDS011;5663;50.864;12.096;2022-10-18T00:18:46;10.23;;;6.10;;
11211;SDS011;5663;50.864;12.096;2022-10-18T00:21:19;8.63;;;6.37;;
11211;SDS011;5663;50.864;12.096;2022-10-18T00:23:52;9.30;;;5.90;;
11211;SDS011;5663;50.864;12.096;2022-10-18T00:26:22;8.67;;;6.10;;
11211;SDS011;5663;50.864;12.096;2022-10-18T00:28:52;12.70;;;5.73;;
11211;SDS011;5663;50.864;12.096;2022-10-18T00:31:23;13.70;;;6.37;;
11211;SDS011;5663;50.864;12.096;2022-10-18T00:33:54;12.87;;;5.80;;
11211;SDS011;5663;50.864;12.096;2022-10-18T00:36:24;8.13;;;6.30;;
11211;SDS011;5663;50.864;12.096;2022-10-18T00:38:55;5.87;;;5.17;;
11211;SDS011;5663;50.864;12.096;2022-10-18T00:41:23;9.90;;;6.43;;
11211;SDS011;5663;50.864;12.096;2022-10-18T00:43:55;9.60;;;5.77;;
11211;SDS011;5663;50.864;12.096;2022-10-18T00:46:26;9.63;;;5.73;;
11211;SDS011;5663;50.864;12.096;2022-10-18T00:52:20;9.97;;;5.57;;
11211;SDS011;5663;50.864;12.096;2022-10-18T00:54:52;10.20;;;6.03;;
11211;SDS011;5663;50.864;12.096;2022-10-18T00:57:22;9.87;;;5.87;;
11211;SDS011;5663;50.864;12.096;2022-10-18T00:59:52;7.83;;;5.93;;
11211;SDS011;5663;50.864;12.096;2022-10-18T01:02:24;10.90;;;5.90;;
11211;SDS011;5663;50.864;12.096;2022-10-18T01:04:52;18.73;;;7.17;;
11211;SDS011;5663;50.864;12.096;2022-10-18T01:07:32;9.23;;;5.57;;
11211;SDS011;5663;50.864;12.096;2022-10-18T01:10:17;10.07;;;6.40;;
11211;SDS011;5663;50.864;12.096;2022-10-18T01:12:58;10.17;;;6.30;;
11211;SDS011;5663;50.864;12.096;2022-10-18T01:15:47;11.13;;;6.70;;
11211;SDS011;5663;50.864;12.096;2022-10-18T01:18:23;8.33;;;6.00;;
11211;SDS011;5663;50.864;12.096;2022-10-18T01:21:07;11.93;;;6.70;;
11211;SDS011;5663;50.864;12.096;2022-10-18T01:24:00;13.60;;;7.23;;
11211;SDS011;5663;50.864;12.096;2022-10-18T01:26:53;9.90;;;5.90;;
11211;SDS011;5663;50.864;12.096;2022-10-18T01:29:31;8.50;;;6.20;;
11211;SDS011;5663;50.864;12.096;2022-10-18T01:32:19;9.07;;;6.20;;
11211;SDS011;5663;50.864;12.096;2022-10-18T01:34:51;8.83;;;6.50;;
11211;SDS011;5663;50.864;12.096;2022-10-18T01:37:24;13.50;;;6.67;;
11211;SDS011;5663;50.864;12.096;2022-10-18T01:39:56;10.33;;;6.90;;
11211;SDS011;5663;50.864;12.096;2022-10-18T01:42:28;10.77;;;6.63;;
11211;SDS011;5663;50.864;12.096;2022-10-18T01:44:56;9.30;;;6.07;;
11211;SDS011;5663;50.864;12.096;2022-10-18T01:47:30;10.13;;;6.80;;
11211;SDS011;5663;50.864;12.096;2022-10-18T01:50:02;7.83;;;5.97;;
11211;SDS011;5663;50.864;12.096;2022-10-18T01:52:34;8.53;;;6.07;;
11211;SDS011;5663;50.864;12.096;2022-10-18T01:55:05;7.07;;;6.00;;
11211;SDS011;5663;50.864;12.096;2022-10-18T01:57:34;11.37;;;6.57;;
11211;SDS011;5663;50.864;12.096;2022-10-18T02:00:09;8.83;;;7.07;;
11211;SDS011;5663;50.864;12.096;2022-10-18T02:02:43;10.57;;;6.40;;
11211;SDS011;5663;50.864;12.096;2022-10-18T02:05:17;9.07;;;6.30;;
11211;SDS011;5663;50.864;12.096;2022-10-18T02:07:55;13.67;;;6.37;;
11211;SDS011;5663;50.864;12.096;2022-10-18T02:10:30;12.77;;;6.70;;
11211;SDS011;5663;50.864;12.096;2022-10-18T02:13:02;15.00;;;6.80;;
11211;SDS011;5663;50.864;12.096;2022-10-18T02:15:31;13.23;;;7.10;;
11211;SDS011;5663;50.864;12.096;2022-10-18T02:18:05;12.77;;;7.27;;
11211;SDS011;5663;50.864;12.096;2022-10-18T02:20:37;10.80;;;6.27;;
11211;SDS011;5663;50.864;12.096;2022-10-18T02:23:06;9.50;;;6.13;;
11211;SDS011;5663;50.864;12.096;2022-10-18T02:25:36;10.37;;;6.40;;
11211;SDS011;5663;50.864;12.096;2022-10-18T02:28:05;12.10;;;6.90;;
11211;SDS011;5663;50.864;12.096;2022-10-18T02:30:39;9.40;;;6.23;;
11211;SDS011;5663;50.864;12.096;2022-10-18T02:33:16;8.40;;;6.00;;
11211;SDS011;5663;50.864;12.096;2022-10-18T02:35:55;8.93;;;6.87;;
11211;SDS011;5663;50.864;12.096;2022-10-18T02:38:29;10.60;;;6.53;;
11211;SDS011;5663;50.864;12.096;2022-10-18T02:40:58;9.87;;;5.93;;
11211;SDS011;5663;50.864;12.096;2022-10-18T02:43:34;6.80;;;5.70;;
11211;SDS011;5663;50.864;12.096;2022-10-18T02:46:01;9.73;;;5.83;;
11211;SDS011;5663;50.864;12.096;2022-10-18T02:48:30;9.57;;;6.57;;
11211;SDS011;5663;50.864;12.096;2022-10-18T02:50:58;12.43;;;6.47;;
11211;SDS011;5663;50.864;12.096;2022-10-18T02:53:26;11.50;;;6.60;;
11211;SDS011;5663;50.864;12.096;2022-10-18T02:55:55;10.33;;;6.20;;
11211;SDS011;5663;50.864;12.096;2022-10-18T02:58:23;9.67;;;6.57;;
11211;SDS011;5663;50.864;12.096;2022-10-18T03:00:51;11.57;;;6.00;;
11211;SDS011;5663;50.864;12.096;2022-10-18T03:03:18;11.90;;;6.37;;
11211;SDS011;5663;50.864;12.096;2022-10-18T03:05:49;12.67;;;7.00;;
11211;SDS011;5663;50.864;12.096;2022-10-18T03:08:17;15.23;;;6.83;;
11211;SDS011;5663;50.864;12.096;2022-10-18T03:10:48;7.73;;;5.80;;
11211;SDS011;5663;50.864;12.096;2022-10-18T03:13:16;10.77;;;7.20;;
11211;SDS011;5663;50.864;12.096;2022-10-18T03:15:43;9.00;;;6.17;;
11211;SDS011;5663;50.864;12.096;2022-10-18T03:18:12;9.20;;;6.80;;
11211;SDS011;5663;50.864;12.096;2022-10-18T03:20:40;12.37;;;6.23;;
11211;SDS011;5663;50.864;12.096;2022-10-18T03:23:10;10.30;;;5.87;;
11211;SDS011;5663;50.864;12.096;2022-10-18T03:25:39;9.33;;;6.47;;
11211;SDS011;5663;50.864;12.096;2022-10-18T03:28:07;13.77;;;6.43;;
11211;SDS011;5663;50.864;12.096;2022-10-18T03:30:35;11.30;;;7.40;;
11211;SDS011;5663;50.864;12.096;2022-10-18T03:33:04;12.10;;;7.23;;
11211;SDS011;5663;50.864;12.096;2022-10-18T03:35:32;10.17;;;6.43;;
11211;SDS011;5663;50.864;12.096;2022-10-18T03:38:00;7.17;;;6.40;;
11211;SDS011;5663;50.864;12.096;2022-10-18T03:40:29;6.53;;;5.43;;
11211;SDS011;5663;50.864;12.096;2022-10-18T03:42:57;11.63;;;6.00;;
11211;SDS011;5663;50.864;12.096;2022-10-18T03:45:25;13.00;;;6.77;;
11211;SDS011;5663;50.864;12.096;2022-10-18T03:47:52;9.90;;;6.27;;
11211;SDS011;5663;50.864;12.096;2022-10-18T03:50:20;9.73;;;6.30;;
11211;SDS011;5663;50.864;12.096;2022-10-18T03:52:51;9.70;;;5.80;;
11211;SDS011;5663;50.864;12.096;2022-10-18T03:55:22;13.73;;;6.17;;
11211;SDS011;5663;50.864;12.096;2022-10-18T03:57:58;10.87;;;6.80;;
11211;SDS011;5663;50.864;12.096;2022-10-18T04:00:26;6.43;;;5.77;;
11211;SDS011;5663;50.864;12.096;2022-10-18T04:02:59;8.50;;;6.60;;
11211;SDS011;5663;50.864;12.096;2022-10-18T04:05:28;9.73;;;5.80;;
11211;SDS011;5663;50.864;12.096;2022-10-18T04:07:56;8.37;;;6.27;;
11211;SDS011;5663;50.864;12.096;2022-10-18T04:10:25;7.07;;;4.87;;
11211;SDS011;5663;50.864;12.096;2022-10-18T04:12:54;9.33;;;6.43;;
11211;SDS011;5663;50.864;12.096;2022-10-18T04:15:25;7.83;;;6.10;;
11211;SDS011;5663;50.864;12.096;2022-10-18T04:17:54;9.23;;;6.80;;
11211;SDS011;5663;50.864;12.096;2022-10-18T04:20:24;8.27;;;6.23;;
11211;SDS011;5663;50.864;12.096;2022-10-18T04:22:53;9.23;;;6.40;;
11211;SDS011;5663;50.864;12.096;2022-10-18T04:25:23;8.47;;;6.53;;
11211;SDS011;5663;50.864;12.096;2022-10-18T04:27:51;12.30;;;7.33;;
11211;SDS011;5663;50.864;12.096;2022-10-18T04:30:21;8.33;;;5.93;;
11211;SDS011;5663;50.864;12.096;2022-10-18T04:32:55;8.07;;;6.33;;
11211;SDS011;5663;50.864;12.096;2022-10-18T04:35:24;10.33;;;6.70;;
11211;SDS011;5663;50.864;12.096;2022-10-18T04:37:52;8.80;;;6.87;;
11211;SDS011;5663;50.864;12.096;2022-10-18T04:40:25;10.87;;;6.10;;
11211;SDS011;5663;50.864;12.096;2022-10-18T04:42:55;8.27;;;6.17;;
11211;SDS011;5663;50.864;12.096;2022-10-18T04:45:25;10.13;;;6.63;;
11211;SDS011;5663;50.864;12.096;2022-10-18T04:47:58;9.20;;;6.77;;
11211;SDS011;5663;50.864;12.096;2022-10-18T04:50:26;9.73;;;6.63;;
11211;SDS011;5663;50.864;12.096;2022-10-18T04:52:56;14.43;;;6.90;;
11211;SDS011;5663;50.864;12.096;2022-10-18T04:55:29;13.97;;;7.10;;
11211;SDS011;5663;50.864;12.096;2022-10-18T04:57:58;13.17;;;7.90;;
11211;SDS011;5663;50.864;12.096;2022-10-18T05:00:45;8.20;;;6.23;;
11211;SDS011;5663;50.864;12.096;2022-10-18T05:03:20;8.87;;;5.97;;
11211;SDS011;5663;50.864;12.096;2022-10-18T05:05:58;9.77;;;7.13;;
11211;SDS011;5663;50.864;12.096;2022-10-18T05:08:32;8.50;;;6.43;;
11211;SDS011;5663;50.864;12.096;2022-10-18T05:11:01;7.97;;;5.90;;
11211;SDS011;5663;50.864;12.096;2022-10-18T05:13:34;11.43;;;6.53;;
11211;SDS011;5663;50.864;12.096;2022-10-18T05:16:03;10.03;;;5.70;;
11211;SDS011;5663;50.864;12.096;2022-10-18T05:18:38;15.17;;;6.67;;
11211;SDS011;5663;50.864;12.096;2022-10-18T05:21:10;8.37;;;6.50;;
11211;SDS011;5663;50.864;12.096;2022-10-18T05:23:38;13.23;;;7.17;;
11211;SDS011;5663;50.864;12.096;2022-10-18T05:26:08;7.40;;;6.23;;
11211;SDS011;5663;50.864;12.096;2022-10-18T05:28:38;8.57;;;7.10;;
11211;SDS011;5663;50.864;12.096;2022-10-18T05:31:09;10.60;;;7.20;;
11211;SDS011;5663;50.864;12.096;2022-10-18T05:33:41;10.67;;;6.77;;
11211;SDS011;5663;50.864;12.096;2022-10-18T05:36:12;12.93;;;7.93;;
11211;SDS011;5663;50.864;12.096;2022-10-18T05:38:41;8.87;;;6.33;;
11211;SDS011;5663;50.864;12.096;2022-10-18T05:41:10;11.40;;;7.00;;
11211;SDS011;5663;50.864;12.096;2022-10-18T05:43:39;9.23;;;5.93;;
11211;SDS011;5663;50.864;12.096;2022-10-18T05:46:06;13.30;;;7.27;;
11211;SDS011;5663;50.864;12.096;2022-10-18T05:48:37;13.70;;;7.90;;
11211;SDS011;5663;50.864;12.096;2022-10-18T05:51:07;9.77;;;7.03;;
11211;SDS011;5663;50.864;12.096;2022-10-18T05:53:35;9.13;;;6.70;;
11211;SDS011;5663;50.864;12.096;2022-10-18T05:56:04;11.60;;;7.27;;
11211;SDS011;5663;50.864;12.096;2022-10-18T05:58:33;7.90;;;6.50;;
11211;SDS011;5663;50.864;12.096;2022-10-18T06:01:01;11.83;;;7.57;;
11211;SDS011;5663;50.864;12.096;2022-10-18T06:03:31;10.83;;;6.57;;
11211;SDS011;5663;50.864;12.096;2022-10-18T06:05:59;10.27;;;7.37;;
11211;SDS011;5663;50.864;12.096;2022-10-18T06:08:31;10.20;;;7.07;;
11211;SDS011;5663;50.864;12.096;2022-10-18T06:11:04;7.63;;;6.53;;
11211;SDS011;5663;50.864;12.096;2022-10-18T06:13:33;10.33;;;7.70;;
11211;SDS011;5663;50.864;12.096;2022-10-18T06:16:01;10.23;;;7.37;;
11211;SDS011;5663;50.864;12.096;2022-10-18T06:18:29;10.50;;;7.20;;
11211;SDS011;5663;50.864;12.096;2022-10-18T06:21:01;12.93;;;8.73;;
11211;SDS011;5663;50.864;12.096;2022-10-18T06:23:32;15.03;;;8.53;;
11211;SDS011;5663;50.864;12.096;2022-10-18T06:26:10;9.83;;;6.40;;
11211;SDS011;5663;50.864;12.096;2022-10-18T06:28:38;13.00;;;7.23;;
11211;SDS011;5663;50.864;12.096;2022-10-18T06:31:09;9.60;;;7.30;;
11211;SDS011;5663;50.864;12.096;2022-10-18T06:33:37;11.70;;;7.07;;
11211;SDS011;5663;50.864;12.096;2022-10-18T06:36:06;10.67;;;8.20;;
11211;SDS011;5663;50.864;12.096;2022-10-18T06:38:38;10.00;;;7.70;;
11211;SDS011;5663;50.864;12.096;2022-10-18T06:41:07;11.17;;;8.10;;
11211;SDS011;5663;50.864;12.096;2022-10-18T06:43:38;14.73;;;9.00;;
11211;SDS011;5663;50.864;12.096;2022-10-18T06:46:06;13.47;;;8.50;;
11211;SDS011;5663;50.864;12.096;2022-10-18T06:48:38;12.27;;;8.43;;
11211;SDS011;5663;50.864;12.096;2022-10-18T06:51:07;9.33;;;7.10;;
11211;SDS011;5663;50.864;12.096;2022-10-18T06:53:36;11.43;;;8.83;;
11211;SDS011;5663;50.864;12.096;2022-10-18T06:56:08;12.60;;;7.30;;
11211;SDS011;5663;50.864;12.096;2022-10-18T06:58:38;15.73;;;9.07;;
11211;SDS011;5663;50.864;12.096;2022-10-18T07:01:06;9.17;;;7.40;;
11211;SDS011;5663;50.864;12.096;2022-10-18T07:03:35;12.63;;;7.63;;
11211;SDS011;5663;50.864;12.096;2022-10-18T07:06:04;10.53;;;8.00;;
11211;SDS011;5663;50.864;12.096;2022-10-18T07:08:34;11.73;;;8.33;;
11211;SDS011;5663;50.864;12.096;2022-10-18T07:11:04;8.93;;;6.93;;
11211;SDS011;5663;50.864;12.096;2022-10-18T07:13:32;7.87;;;7.07;;
11211;SDS011;5663;50.864;12.096;2022-10-18T07:16:02;9.93;;;7.20;;
11211;SDS011;5663;50.864;12.096;2022-10-18T07:18:32;7.63;;;6.60;;
11211;SDS011;5663;50.864;12.096;2022-10-18T07:21:01;10.93;;;7.97;;
11211;SDS011;5663;50.864;12.096;2022-10-18T07:23:31;13.33;;;9.20;;
11211;SDS011;5663;50.864;12.096;2022-10-18T07:26:00;11.90;;;8.00;;
11211;SDS011;5663;50.864;12.096;2022-10-18T07:28:30;13.33;;;8.80;;
11211;SDS011;5663;50.864;12.096;2022-10-18T07:31:03;11.17;;;8.07;;
11211;SDS011;5663;50.864;12.096;2022-10-18T07:33:32;10.10;;;7.73;;
11211;SDS011;5663;50.864;12.096;2022-10-18T07:36:00;10.63;;;8.20;;
11211;SDS011;5663;50.864;12.096;2022-10-18T07:38:29;9.23;;;7.77;;
11211;SDS011;5663;50.864;12.096;2022-10-18T07:40:57;11.33;;;7.90;;
11211;SDS011;5663;50.864;12.096;2022-10-18T07:43:29;12.87;;;9.27;;
11211;SDS011;5663;50.864;12.096;2022-10-18T07:46:03;12.00;;;8.23;;
11211;SDS011;5663;50.864;12.096;2022-10-18T07:48:31;14.07;;;9.73;;
11211;SDS011;5663;50.864;12.096;2022-10-18T07:50:59;13.63;;;9.50;;
11211;SDS011;5663;50.864;12.096;2022-10-18T07:53:28;14.13;;;10.80;;
11211;SDS011;5663;50.864;12.096;2022-10-18T07:55:59;14.00;;;9.97;;
11211;SDS011;5663;50.864;12.096;2022-10-18T07:58:35;17.47;;;13.80;;
11211;SDS011;5663;50.864;12.096;2022-10-18T08:01:06;19.97;;;14.53;;
11211;SDS011;5663;50.864;12.096;2022-10-18T08:03:34;26.00;;;17.27;;
11211;SDS011;5663;50.864;12.096;2022-10-18T08:06:09;29.53;;;15.50;;
11211;SDS011;5663;50.864;12.096;2022-10-18T08:08:43;30.37;;;16.90;;
11211;SDS011;5663;50.864;12.096;2022-10-18T08:11:15;20.90;;;15.80;;
11211;SDS011;5663;50.864;12.096;2022-10-18T08:13:46;33.97;;;16.37;;
11211;SDS011;5663;50.864;12.096;2022-10-18T08:16:15;21.70;;;15.70;;
11211;SDS011;5663;50.864;12.096;2022-10-18T08:18:44;19.60;;;14.47;;
11211;SDS011;5663;50.864;12.096;2022-10-18T08:21:13;20.70;;;14.77;;
11211;SDS011;5663;50.864;12.096;2022-10-18T08:23:43;19.53;;;14.00;;
11211;SDS011;5663;50.864;12.096;2022-10-18T08:26:11;19.50;;;13.00;;
11211;SDS011;5663;50.864;12.096;2022-10-18T08:28:41;21.53;;;13.17;;
11211;SDS011;5663;50.864;12.096;2022-10-18T08:31:13;19.87;;;13.40;;
11211;SDS011;5663;50.864;12.096;2022-10-18T08:33:43;21.30;;;13.93;;
11211;SDS011;5663;50.864;12.096;2022-10-18T08:36:12;19.57;;;13.60;;
11211;SDS011;5663;50.864;12.096;2022-10-18T08:38:42;18.27;;;13.53;;
11211;SDS011;5663;50.864;12.096;2022-10-18T08:41:26;17.90;;;13.33;;
11211;SDS011;5663;50.864;12.096;2022-10-18T08:48:58;24.80;;;13.47;;
11211;SDS011;5663;50.864;12.096;2022-10-18T08:51:56;19.83;;;13.87;;
11211;SDS011;5663;50.864;12.096;2022-10-18T08:54:30;19.20;;;13.87;;
11211;SDS011;5663;50.864;12.096;2022-10-18T08:57:30;19.47;;;13.67;;
11211;SDS011;5663;50.864;12.096;2022-10-18T09:00:39;17.00;;;12.23;;
11211;SDS011;5663;50.864;12.096;2022-10-18T09:03:47;18.77;;;11.67;;
11211;SDS011;5663;50.864;12.096;2022-10-18T09:06:46;15.20;;;11.33;;
11211;SDS011;5663;50.864;12.096;2022-10-18T09:09:30;16.03;;;12.67;;
11211;SDS011;5663;50.864;12.096;2022-10-18T09:12:15;17.80;;;12.70;;
11211;SDS011;5663;50.864;12.096;2022-10-18T09:15:11;17.17;;;12.43;;
11211;SDS011;5663;50.864;12.096;2022-10-18T09:18:00;17.57;;;12.30;;
11211;SDS011;5663;50.864;12.096;2022-10-18T09:20:43;15.37;;;11.30;;
11211;SDS011;5663;50.864;12.096;2022-10-18T09:23:24;17.43;;;11.40;;
11211;SDS011;5663;50.864;12.096;2022-10-18T09:26:08;12.93;;;10.73;;
11211;SDS011;5663;50.864;12.096;2022-10-18T09:28:56;16.40;;;10.87;;
11211;SDS011;5663;50.864;12.096;2022-10-18T09:31:39;14.73;;;10.40;;
11211;SDS011;5663;50.864;12.096;2022-10-18T09:34:20;11.53;;;9.83;;
11211;SDS011;5663;50.864;12.096;2022-10-18T09:36:58;17.40;;;10.73;;
11211;SDS011;5663;50.864;12.096;2022-10-18T09:39:28;11.30;;;9.50;;
11211;SDS011;5663;50.864;12.096;2022-10-18T09:42:04;10.40;;;8.70;;
11211;SDS011;5663;50.864;12.096;2022-10-18T09:44:40;9.50;;;8.23;;
11211;SDS011;5663;50.864;12.096;2022-10-18T09:47:15;12.80;;;9.53;;
11211;SDS011;5663;50.864;12.096;2022-10-18T09:49:51;10.17;;;8.13;;
11211;SDS011;5663;50.864;12.096;2022-10-18T09:52:25;10.53;;;8.00;;
11211;SDS011;5663;50.864;12.096;2022-10-18T09:55:02;7.83;;;6.83;;
11211;SDS011;5663;50.864;12.096;2022-10-18T09:57:41;9.53;;;7.03;;
11211;SDS011;5663;50.864;12.096;2022-10-18T10:00:17;9.63;;;7.43;;
11211;SDS011;5663;50.864;12.096;2022-10-18T10:02:51;13.17;;;7.20;;
11211;SDS011;5663;50.864;12.096;2022-10-18T10:05:37;11.07;;;8.20;;
11211;SDS011;5663;50.864;12.096;2022-10-18T10:08:10;10.70;;;7.97;;
11211;SDS011;5663;50.864;12.096;2022-10-18T10:10:45;7.40;;;6.43;;
11211;SDS011;5663;50.864;12.096;2022-10-18T10:13:17;4.37;;;3.70;;
11211;SDS011;5663;50.864;12.096;2022-10-18T10:15:51;4.30;;;3.90;;
11211;SDS011;5663;50.864;12.096;2022-10-18T10:18:23;6.10;;;4.57;;
11211;SDS011;5663;50.864;12.096;2022-10-18T10:20:53;17.23;;;6.53;;
11211;SDS011;5663;50.864;12.096;2022-10-18T10:23:27;11.10;;;6.43;;
11211;SDS011;5663;50.864;12.096;2022-10-18T10:26:00;16.50;;;9.03;;
11211;SDS011;5663;50.864;12.096;2022-10-18T10:28:30;21.23;;;11.37;;
11211;SDS011;5663;50.864;12.096;2022-10-18T10:31:15;22.53;;;10.80;;
11211;SDS011;5663;50.864;12.096;2022-10-18T10:33:51;16.70;;;10.00;;
11211;SDS011;5663;50.864;12.096;2022-10-18T10:36:29;15.33;;;9.30;;
11211;SDS011;5663;50.864;12.096;2022-10-18T10:39:06;21.47;;;10.17;;
11211;SDS011;5663;50.864;12.096;2022-10-18T10:41:46;18.07;;;9.23;;
11211;SDS011;5663;50.864;12.096;2022-10-18T10:44:20;16.17;;;9.23;;
11211;SDS011;5663;50.864;12.096;2022-10-18T10:46:52;17.40;;;8.90;;
11211;SDS011;5663;50.864;12.096;2022-10-18T10:49:21;16.13;;;9.43;;
11211;SDS011;5663;50.864;12.096;2022-10-18T10:51:54;18.27;;;9.17;;
11211;SDS011;5663;50.864;12.096;2022-10-18T10:54:30;20.23;;;9.30;;
11211;SDS011;5663;50.864;12.096;2022-10-18T10:57:05;17.03;;;9.53;;
11211;SDS011;5663;50.864;12.096;2022-10-18T10:59:46;22.60;;;11.40;;
11211;SDS011;5663;50.864;12.096;2022-10-18T11:02:18;21.63;;;10.97;;
11211;SDS011;5663;50.864;12.096;2022-10-18T11:05:20;22.23;;;11.03;;
11211;SDS011;5663;50.864;12.096;2022-10-18T11:08:14;19.43;;;9.90;;
11211;SDS011;5663;50.864;12.096;2022-10-18T11:13:54;17.80;;;8.67;;
11211;SDS011;5663;50.864;12.096;2022-10-18T11:16:37;14.53;;;7.70;;
11211;SDS011;5663;50.864;12.096;2022-10-18T11:19:19;16.47;;;7.00;;
11211;SDS011;5663;50.864;12.096;2022-10-18T11:22:05;13.30;;;6.57;;
11211;SDS011;5663;50.864;12.096;2022-10-18T11:24:43;11.90;;;5.37;;
11211;SDS011;5663;50.864;12.096;2022-10-18T11:27:18;14.43;;;6.13;;
11211;SDS011;5663;50.864;12.096;2022-10-18T11:30:02;19.77;;;7.57;;
11211;SDS011;5663;50.864;12.096;2022-10-18T11:32:48;19.63;;;7.50;;
11211;SDS011;5663;50.864;12.096;2022-10-18T11:35:27;13.00;;;6.43;;
11211;SDS011;5663;50.864;12.096;2022-10-18T11:41:04;21.77;;;8.97;;
11211;SDS011;5663;50.864;12.096;2022-10-18T11:43:45;21.87;;;9.10;;
11211;SDS011;5663;50.864;12.096;2022-10-18T11:46:21;24.23;;;9.90;;
11211;SDS011;5663;50.864;12.096;2022-10-18T11:49:09;21.73;;;9.20;;
11211;SDS011;5663;50.864;12.096;2022-10-18T11:51:53;17.93;;;7.87;;
11211;SDS011;5663;50.864;12.096;2022-10-18T11:55:01;16.53;;;6.83;;
11211;SDS011;5663;50.864;12.096;2022-10-18T11:57:44;15.83;;;5.93;;
11211;SDS011;5663;50.864;12.096;2022-10-18T12:00:31;11.23;;;5.60;;
11211;SDS011;5663;50.864;12.096;2022-10-18T12:06:15;9.13;;;3.57;;
11211;SDS011;5663;50.864;12.096;2022-10-18T12:08:53;9.47;;;3.73;;
11211;SDS011;5663;50.864;12.096;2022-10-18T12:11:31;5.27;;;3.33;;
11211;SDS011;5663;50.864;12.096;2022-10-18T12:14:13;2.83;;;2.30;;
11211;SDS011;5663;50.864;12.096;2022-10-18T12:16:57;3.23;;;2.40;;
11211;SDS011;5663;50.864;12.096;2022-10-18T12:19:29;5.93;;;2.70;;
11211;SDS011;5663;50.864;12.096;2022-10-18T12:22:04;4.00;;;2.10;;
11211;SDS011;5663;50.864;12.096;2022-10-18T12:24:55;2.10;;;1.90;;
11211;SDS011;5663;50.864;12.096;2022-10-18T12:31:59;3.50;;;2.03;;
11211;SDS011;5663;50.864;12.096;2022-10-18T12:34:08;2.00;;;1.90;;
11211;SDS011;5663;50.864;12.096;2022-10-18T12:40:23;4.00;;;2.40;;
11211;SDS011;5663;50.864;12.096;2022-10-18T12:43:02;3.80;;;2.00;;
11211;SDS011;5663;50.864;12.096;2022-10-18T12:45:45;2.00;;;1.70;;
11211;SDS011;5663;50.864;12.096;2022-10-18T12:48:26;2.73;;;2.00;;
11211;SDS011;5663;50.864;12.096;2022-10-18T12:51:02;3.03;;;2.00;;
11211;SDS011;5663;50.864;12.096;2022-10-18T12:53:32;2.97;;;1.93;;
11211;SDS011;5663;50.864;12.096;2022-10-18T13:11:25;2.83;;;2.37;;
11211;SDS011;5663;50.864;12.096;2022-10-18T13:14:09;2.43;;;2.23;;
11211;SDS011;5663;50.864;12.096;2022-10-18T13:17:11;5.73;;;4.07;;
11211;SDS011;5663;50.864;12.096;2022-10-18T13:19:50;3.90;;;3.50;;
11211;SDS011;5663;50.864;12.096;2022-10-18T13:22:33;2.50;;;2.00;;
11211;SDS011;5663;50.864;12.096;2022-10-18T13:25:18;3.47;;;2.80;;
11211;SDS011;5663;50.864;12.096;2022-10-18T13:27:50;2.40;;;2.20;;
11211;SDS011;5663;50.864;12.096;2022-10-18T13:30:32;3.83;;;2.37;;
11211;SDS011;5663;50.864;12.096;2022-10-18T13:33:23;1.73;;;1.57;;
11211;SDS011;5663;50.864;12.096;2022-10-18T13:36:05;10.60;;;6.87;;
11211;SDS011;5663;50.864;12.096;2022-10-18T13:39:00;2.60;;;1.90;;
11211;SDS011;5663;50.864;12.096;2022-10-18T13:44:44;2.17;;;2.00;;
11211;SDS011;5663;50.864;12.096;2022-10-18T13:50:09;3.30;;;2.70;;
11211;SDS011;5663;50.864;12.096;2022-10-18T13:56:13;2.87;;;2.67;;
11211;SDS011;5663;50.864;12.096;2022-10-18T13:58:58;3.43;;;2.73;;
11211;SDS011;5663;50.864;12.096;2022-10-18T14:01:50;2.77;;;2.57;;
11211;SDS011;5663;50.864;12.096;2022-10-18T14:04:54;3.40;;;3.10;;
11211;SDS011;5663;50.864;12.096;2022-10-18T14:07:42;3.50;;;3.20;;
11211;SDS011;5663;50.864;12.096;2022-10-18T14:10:25;4.07;;;3.70;;
11211;SDS011;5663;50.864;12.096;2022-10-18T14:13:16;3.13;;;2.87;;
11211;SDS011;5663;50.864;12.096;2022-10-18T14:15:51;5.10;;;3.13;;
11211;SDS011;5663;50.864;12.096;2022-10-18T14:18:39;3.63;;;2.53;;
11211;SDS011;5663;50.864;12.096;2022-10-18T14:21:18;5.73;;;3.03;;
11211;SDS011;5663;50.864;12.096;2022-10-18T14:23:59;3.00;;;2.70;;
11211;SDS011;5663;50.864;12.096;2022-10-18T14:26:45;4.63;;;2.90;;
11211;SDS011;5663;50.864;12.096;2022-10-18T14:29:16;5.40;;;3.67;;
11211;SDS011;5663;50.864;12.096;2022-10-18T14:31:50;5.50;;;3.40;;
11211;SDS011;5663;50.864;12.096;2022-10-18T14:37:25;5.00;;;3.57;;
11211;SDS011;5663;50.864;12.096;2022-10-18T14:39:57;3.93;;;3.20;;
11211;SDS011;5663;50.864;12.096;2022-10-18T14:42:25;4.23;;;3.40;;
11211;SDS011;5663;50.864;12.096;2022-10-18T14:44:54;4.37;;;3.57;;
11211;SDS011;5663;50.864;12.096;2022-10-18T14:47:22;6.20;;;4.20;;
11211;SDS011;5663;50.864;12.096;2022-10-18T14:49:51;4.97;;;4.00;;
11211;SDS011;5663;50.864;12.096;2022-10-18T14:52:25;6.17;;;4.37;;
11211;SDS011;5663;50.864;12.096;2022-10-18T14:54:56;5.47;;;3.93;;
11211;SDS011;5663;50.864;12.096;2022-10-18T14:57:27;5.30;;;3.80;;
11211;SDS011;5663;50.864;12.096;2022-10-18T15:00:02;4.60;;;4.13;;
11211;SDS011;5663;50.864;12.096;2022-10-18T15:02:36;4.80;;;4.30;;
11211;SDS011;5663;50.864;12.096;2022-10-18T15:05:16;4.53;;;4.13;;
11211;SDS011;5663;50.864;12.096;2022-10-18T15:07:57;4.23;;;3.83;;
11211;SDS011;5663;50.864;12.096;2022-10-18T15:10:32;4.57;;;3.63;;
11211;SDS011;5663;50.864;12.096;2022-10-18T15:13:10;5.77;;;4.43;;
11211;SDS011;5663;50.864;12.096;2022-10-18T15:15:51;5.50;;;4.03;;
11211;SDS011;5663;50.864;12.096;2022-10-18T15:18:28;5.60;;;4.40;;
11211;SDS011;5663;50.864;12.096;2022-10-18T15:21:07;4.97;;;4.47;;
11211;SDS011;5663;50.864;12.096;2022-10-18T15:23:57;6.30;;;4.60;;
11211;SDS011;5663;50.864;12.096;2022-10-18T15:26:53;6.67;;;5.60;;
11211;SDS011;5663;50.864;12.096;2022-10-18T15:29:25;7.23;;;5.20;;
11211;SDS011;5663;50.864;12.096;2022-10-18T15:32:06;7.70;;;6.10;;
11211;SDS011;5663;50.864;12.096;2022-10-18T15:34:43;5.93;;;5.33;;
11211;SDS011;5663;50.864;12.096;2022-10-18T15:37:17;7.20;;;6.40;;
11211;SDS011;5663;50.864;12.096;2022-10-18T15:40:28;9.47;;;6.87;;
11211;SDS011;5663;50.864;12.096;2022-10-18T15:43:05;6.43;;;5.80;;
11211;SDS011;5663;50.864;12.096;2022-10-18T15:46:05;8.20;;;6.30;;
11211;SDS011;5663;50.864;12.096;2022-10-18T15:48:56;10.60;;;7.57;;
11211;SDS011;5663;50.864;12.096;2022-10-18T15:52:14;13.80;;;9.67;;
11211;SDS011;5663;50.864;12.096;2022-10-18T15:54:56;8.23;;;7.33;;
11211;SDS011;5663;50.864;12.096;2022-10-18T15:57:30;11.53;;;7.87;;
11211;SDS011;5663;50.864;12.096;2022-10-18T16:00:04;9.03;;;8.03;;
11211;SDS011;5663;50.864;12.096;2022-10-18T16:02:37;10.07;;;7.73;;
11211;SDS011;5663;50.864;12.096;2022-10-18T16:05:10;9.83;;;8.53;;
11211;SDS011;5663;50.864;12.096;2022-10-18T16:07:43;10.87;;;9.27;;
11211;SDS011;5663;50.864;12.096;2022-10-18T16:10:11;12.97;;;10.37;;
11211;SDS011;5663;50.864;12.096;2022-10-18T16:12:47;21.10;;;14.30;;
11211;SDS011;5663;50.864;12.096;2022-10-18T16:15:17;19.30;;;13.37;;
11211;SDS011;5663;50.864;12.096;2022-10-18T16:17:45;23.43;;;13.27;;